Courage — WDE3893 — position and weather

sailwx.info

Track history (hours):
 
Tides and Currents Weather Stations Pressure Air Temp Water Temp Dewpoint Dewpoint Depression Visibility Wind Speed Wind Dir Waves Ship Positions

Courage

Owner: Intrepid Ship Management., jacksonville, FL. More information available from US FCC via Universal Licensing System and Coast Guard Vessel Documentation Center.

Last reported at 2018-Feb-14 18:16 UTC. Time now 2018-Feb-17 23:44 UTC.
Position N 25°13' W 080°06'.

Length 208 m; draft 6.4 m.

Type: Towing. MMSI: 368413000.

Date/timePositionNaut miles runAvg speedWind from/ knotsBaromVisibWave heightAir tempDewpointWater temp
2018-Feb-14 18:16N 25°13' W 080°06'2 6.0
2018-Feb-14 17:53N 25°15' W 080°05'2 5.9
2018-Feb-14 17:29N 25°18' W 080°04'3 5.9
2018-Feb-14 17:00N 25°20' W 080°03'3 5.9
2018-Feb-14 16:30N 25°23' W 080°02'3 5.6
2018-Feb-14 16:00N 25°26' W 080°02'3 5.7
2018-Feb-14 15:30N 25°29' W 080°02'3 5.7
2018-Feb-14 15:00N 25°32' W 080°02'3 5.6
2018-Feb-14 14:30N 25°34' W 080°01'3 5.1
2018-Feb-14 14:00N 25°37' W 080°01'2 4.8
2018-Feb-14 13:30N 25°39' W 080°01'3 5.2
2018-Feb-14 13:00N 25°42' W 080°01'3 6.8
2018-Feb-14 12:30N 25°45' W 080°01'3 6.1
2018-Feb-14 12:00N 25°48' W 080°01'3 5.9
2018-Feb-14 11:30N 25°51' W 080°01'3 5.8
2018-Feb-14 11:00N 25°54' W 080°01'3 5.8
2018-Feb-14 10:30N 25°57' W 080°01'3 5.9
2018-Feb-14 10:00N 26°00' W 080°01'3 5.8
2018-Feb-14 09:30N 26°03' W 080°01'3 5.7
2018-Feb-14 09:00N 26°06' W 080°01'3 6.0
2018-Feb-14 08:30N 26°09' W 080°00'3 6.0
2018-Feb-14 08:00N 26°12' W 080°00'3 6.1
2018-Feb-14 07:30N 26°15' W 079°60'3 6.0
2018-Feb-14 07:00N 26°18' W 079°59'3 5.8
2018-Feb-14 06:30N 26°21' W 079°59'3 6.0
2018-Feb-14 06:00N 26°24' W 079°59'3 6.3
2018-Feb-14 05:30N 26°27' W 079°58'3 6.5
2018-Feb-14 05:00N 26°30' W 079°58'3 6.3
2018-Feb-14 04:30N 26°33' W 079°58'3 5.9
2018-Feb-14 03:59N 26°36' W 079°57'3 5.7
2018-Feb-14 03:29N 26°39' W 079°57'11 6.1
2018-Feb-14 01:40N 26°50' W 079°57'1 6.6
2018-Feb-14 01:29N 26°51' W 079°57'3 6.4
2018-Feb-14 01:00N 26°54' W 079°58'3 6.2
2018-Feb-14 00:30N 26°57' W 079°58'3 6.2
2018-Feb-14 00:00N 27°01' W 079°59'3 6.0
2018-Feb-13 23:28N 27°04' W 079°59'3 5.3
2018-Feb-13 22:59N 27°06' W 079°59'  
Track history (hours):
 
Tides and Currents Weather Stations Pressure Air Temp Water Temp Dewpoint Dewpoint Depression Visibility Wind Speed Wind Dir Waves Ship Positions

Courage

Owner: Intrepid Ship Management., jacksonville, FL. More information available from US FCC via Universal Licensing System and Coast Guard Vessel Documentation Center.

Last reported at 2018-Feb-14 18:16 UTC. Time now 2018-Feb-17 23:44 UTC.
Position N 25°13' W 080°06'.

Length 208 m; draft 6.4 m.

Type: Towing. MMSI: 368413000.

Date/timePositionNaut miles runAvg speedWind from/ knotsBaromVisibWave heightAir tempDewpointWater temp
2018-Feb-14 18:16N 25°13' W 080°06'2 6.0
2018-Feb-14 17:53N 25°15' W 080°05'2 5.9
2018-Feb-14 17:29N 25°18' W 080°04'3 5.9
2018-Feb-14 17:00N 25°20' W 080°03'3 5.9
2018-Feb-14 16:30N 25°23' W 080°02'3 5.6
2018-Feb-14 16:00N 25°26' W 080°02'3 5.7
2018-Feb-14 15:30N 25°29' W 080°02'3 5.7
2018-Feb-14 15:00N 25°32' W 080°02'3 5.6
2018-Feb-14 14:30N 25°34' W 080°01'3 5.1
2018-Feb-14 14:00N 25°37' W 080°01'2 4.8
2018-Feb-14 13:30N 25°39' W 080°01'3 5.2
2018-Feb-14 13:00N 25°42' W 080°01'3 6.8
2018-Feb-14 12:30N 25°45' W 080°01'3 6.1
2018-Feb-14 12:00N 25°48' W 080°01'3 5.9
2018-Feb-14 11:30N 25°51' W 080°01'3 5.8
2018-Feb-14 11:00N 25°54' W 080°01'3 5.8
2018-Feb-14 10:30N 25°57' W 080°01'3 5.9
2018-Feb-14 10:00N 26°00' W 080°01'3 5.8
2018-Feb-14 09:30N 26°03' W 080°01'3 5.7
2018-Feb-14 09:00N 26°06' W 080°01'3 6.0
2018-Feb-14 08:30N 26°09' W 080°00'3 6.0
2018-Feb-14 08:00N 26°12' W 080°00'3 6.1
2018-Feb-14 07:30N 26°15' W 079°60'3 6.0
2018-Feb-14 07:00N 26°18' W 079°59'3 5.8
2018-Feb-14 06:30N 26°21' W 079°59'3 6.0
2018-Feb-14 06:00N 26°24' W 079°59'3 6.3
2018-Feb-14 05:30N 26°27' W 079°58'3 6.5
2018-Feb-14 05:00N 26°30' W 079°58'3 6.3
2018-Feb-14 04:30N 26°33' W 079°58'3 5.9
2018-Feb-14 03:59N 26°36' W 079°57'3 5.7
2018-Feb-14 03:29N 26°39' W 079°57'11 6.1
2018-Feb-14 01:40N 26°50' W 079°57'1 6.6
2018-Feb-14 01:29N 26°51' W 079°57'3 6.4
2018-Feb-14 01:00N 26°54' W 079°58'3 6.2
2018-Feb-14 00:30N 26°57' W 079°58'3 6.2
2018-Feb-14 00:00N 27°01' W 079°59'3 6.0
2018-Feb-13 23:28N 27°04' W 079°59'3 5.3
2018-Feb-13 22:59N 27°06' W 079°59'  

Dump ship's entire track history